sensor_id;sensor_type;location;lat;lon;timestamp;pressure;altitude;pressure_sealevel;temperature
75431;BMP280;64127;51.488;5.462;2023-02-26T00:01:36;101589.47;;;6.16
75431;BMP280;64127;51.488;5.462;2023-02-26T00:04:09;101592.16;;;6.17
75431;BMP280;64127;51.488;5.462;2023-02-26T00:06:42;101589.13;;;6.11
75431;BMP280;64127;51.488;5.462;2023-02-26T00:09:27;101602.47;;;6.16
75431;BMP280;64127;51.488;5.462;2023-02-26T00:12:00;101604.06;;;6.13
75431;BMP280;64127;51.488;5.462;2023-02-26T00:14:33;101607.25;;;6.09
75431;BMP280;64127;51.488;5.462;2023-02-26T00:17:06;101619.34;;;6.09
75431;BMP280;64127;51.488;5.462;2023-02-26T00:19:45;101621.06;;;6.08
75431;BMP280;64127;51.488;5.462;2023-02-26T00:22:17;101624.56;;;6.09
75431;BMP280;64127;51.488;5.462;2023-02-26T00:24:49;101626.25;;;6.08
75431;BMP280;64127;51.488;5.462;2023-02-26T00:27:21;101623.75;;;6.10
75431;BMP280;64127;51.488;5.462;2023-02-26T00:29:53;101623.75;;;6.10
75431;BMP280;64127;51.488;5.462;2023-02-26T00:32:26;101622.88;;;6.09
75431;BMP280;64127;51.488;5.462;2023-02-26T00:34:58;101620.34;;;6.11
75431;BMP280;64127;51.488;5.462;2023-02-26T00:43:09;101640.03;;;6.19
75431;BMP280;64127;51.488;5.462;2023-02-26T00:46:02;101633.56;;;6.14
75431;BMP280;64127;51.488;5.462;2023-02-26T00:51:55;101654.03;;;6.21
75431;BMP280;64127;51.488;5.462;2023-02-26T00:54:30;101645.44;;;6.22
75431;BMP280;64127;51.488;5.462;2023-02-26T00:57:02;101654.69;;;6.30
75431;BMP280;64127;51.488;5.462;2023-02-26T00:59:36;101656.50;;;6.31
75431;BMP280;64127;51.488;5.462;2023-02-26T01:02:08;101653.00;;;6.31
75431;BMP280;64127;51.488;5.462;2023-02-26T01:04:41;101637.63;;;6.22
75431;BMP280;64127;51.488;5.462;2023-02-26T01:07:14;101660.91;;;6.32
75431;BMP280;64127;51.488;5.462;2023-02-26T01:09:47;101654.81;;;6.32
75431;BMP280;64127;51.488;5.462;2023-02-26T01:12:20;101654.25;;;6.24
75431;BMP280;64127;51.488;5.462;2023-02-26T01:14:52;101666.91;;;6.31
75431;BMP280;64127;51.488;5.462;2023-02-26T01:17:40;101662.63;;;6.20
75431;BMP280;64127;51.488;5.462;2023-02-26T01:20:20;101671.34;;;6.21
75431;BMP280;64127;51.488;5.462;2023-02-26T01:23:00;101661.28;;;6.13
75431;BMP280;64127;51.488;5.462;2023-02-26T01:25:57;101674.19;;;6.12
75431;BMP280;64127;51.488;5.462;2023-02-26T01:28:30;101674.19;;;6.12
75431;BMP280;64127;51.488;5.462;2023-02-26T01:31:06;101656.34;;;6.05
75431;BMP280;64127;51.488;5.462;2023-02-26T01:33:54;101673.78;;;6.06
75431;BMP280;64127;51.488;5.462;2023-02-26T01:36:35;101666.75;;;6.05
75431;BMP280;64127;51.488;5.462;2023-02-26T01:42:10;101677.84;;;6.02
75431;BMP280;64127;51.488;5.462;2023-02-26T01:45:02;101671.50;;;5.99
75431;BMP280;64127;51.488;5.462;2023-02-26T01:48:01;101674.56;;;5.93
75431;BMP280;64127;51.488;5.462;2023-02-26T01:50:37;101680.66;;;5.94
75431;BMP280;64127;51.488;5.462;2023-02-26T01:56:03;101682.81;;;5.88
75431;BMP280;64127;51.488;5.462;2023-02-26T01:58:38;101677.38;;;5.85
75431;BMP280;64127;51.488;5.462;2023-02-26T02:01:10;101678.03;;;5.82
75431;BMP280;64127;51.488;5.462;2023-02-26T02:03:42;101683.69;;;5.77
75431;BMP280;64127;51.488;5.462;2023-02-26T02:06:21;101686.84;;;5.73
75431;BMP280;64127;51.488;5.462;2023-02-26T02:08:53;101699.75;;;5.71
75431;BMP280;64127;51.488;5.462;2023-02-26T02:11:25;101702.00;;;5.67
75431;BMP280;64127;51.488;5.462;2023-02-26T02:14:23;101709.34;;;5.60
75431;BMP280;64127;51.488;5.462;2023-02-26T02:17:11;101703.69;;;5.54
75431;BMP280;64127;51.488;5.462;2023-02-26T02:20:09;101716.91;;;5.57
75431;BMP280;64127;51.488;5.462;2023-02-26T02:26:10;101707.28;;;5.45
75431;BMP280;64127;51.488;5.462;2023-02-26T02:32:10;101728.41;;;5.49
75431;BMP280;64127;51.488;5.462;2023-02-26T02:34:54;101729.09;;;5.47
75431;BMP280;64127;51.488;5.462;2023-02-26T02:38:08;101732.13;;;5.41
75431;BMP280;64127;51.488;5.462;2023-02-26T02:40:48;101726.13;;;5.42
75431;BMP280;64127;51.488;5.462;2023-02-26T02:43:27;101717.75;;;5.35
75431;BMP280;64127;51.488;5.462;2023-02-26T02:46:08;101733.72;;;5.39
75431;BMP280;64127;51.488;5.462;2023-02-26T02:48:48;101743.31;;;5.40
75431;BMP280;64127;51.488;5.462;2023-02-26T02:51:35;101747.25;;;5.35
75431;BMP280;64127;51.488;5.462;2023-02-26T02:54:28;101746.47;;;5.36
75431;BMP280;64127;51.488;5.462;2023-02-26T02:57:20;101752.34;;;5.34
75431;BMP280;64127;51.488;5.462;2023-02-26T03:00:15;101760.00;;;5.32
75431;BMP280;64127;51.488;5.462;2023-02-26T03:03:08;101762.50;;;5.31
75431;BMP280;64127;51.488;5.462;2023-02-26T03:05:42;101741.91;;;5.22
75431;BMP280;64127;51.488;5.462;2023-02-26T03:08:24;101764.97;;;5.29
75431;BMP280;64127;51.488;5.462;2023-02-26T03:10:57;101771.75;;;5.27
75431;BMP280;64127;51.488;5.462;2023-02-26T03:13:29;101766.56;;;5.27
75431;BMP280;64127;51.488;5.462;2023-02-26T03:19:21;101776.47;;;5.21
75431;BMP280;64127;51.488;5.462;2023-02-26T03:22:08;101775.53;;;5.21
75431;BMP280;64127;51.488;5.462;2023-02-26T03:25:16;101779.38;;;5.14
75431;BMP280;64127;51.488;5.462;2023-02-26T03:30:39;101790.00;;;5.17
75431;BMP280;64127;51.488;5.462;2023-02-26T03:36:03;101787.97;;;5.13
75431;BMP280;64127;51.488;5.462;2023-02-26T03:41:26;101792.94;;;5.10
75431;BMP280;64127;51.488;5.462;2023-02-26T03:44:07;101792.41;;;5.04
75431;BMP280;64127;51.488;5.462;2023-02-26T03:46:47;101804.50;;;5.03
75431;BMP280;64127;51.488;5.462;2023-02-26T03:49:28;101804.38;;;5.02
75431;BMP280;64127;51.488;5.462;2023-02-26T03:52:03;101818.16;;;5.01
75431;BMP280;64127;51.488;5.462;2023-02-26T03:54:51;101813.25;;;4.94
75431;BMP280;64127;51.488;5.462;2023-02-26T03:57:25;101822.88;;;4.95
75431;BMP280;64127;51.488;5.462;2023-02-26T03:59:57;101824.44;;;4.93
75431;BMP280;64127;51.488;5.462;2023-02-26T04:02:44;101797.94;;;4.75
75431;BMP280;64127;51.488;5.462;2023-02-26T04:05:24;101830.41;;;4.92
75431;BMP280;64127;51.488;5.462;2023-02-26T04:07:57;101828.50;;;4.89
75431;BMP280;64127;51.488;5.462;2023-02-26T04:11:04;101826.81;;;4.80
75431;BMP280;64127;51.488;5.462;2023-02-26T04:13:33;101832.53;;;4.86
75431;BMP280;64127;51.488;5.462;2023-02-26T04:16:06;101834.31;;;4.87
75431;BMP280;64127;51.488;5.462;2023-02-26T04:18:38;101838.25;;;4.82
75431;BMP280;64127;51.488;5.462;2023-02-26T04:21:13;101843.53;;;4.83
75431;BMP280;64127;51.488;5.462;2023-02-26T04:23:46;101851.22;;;4.82
75431;BMP280;64127;51.488;5.462;2023-02-26T04:26:18;101843.31;;;4.80
75431;BMP280;64127;51.488;5.462;2023-02-26T04:28:50;101850.31;;;4.81
75431;BMP280;64127;51.488;5.462;2023-02-26T04:31:22;101843.97;;;4.78
75431;BMP280;64127;51.488;5.462;2023-02-26T04:33:54;101854.88;;;4.74
75431;BMP280;64127;51.488;5.462;2023-02-26T04:36:26;101859.16;;;4.73
75431;BMP280;64127;51.488;5.462;2023-02-26T04:38:58;101863.34;;;4.71
75431;BMP280;64127;51.488;5.462;2023-02-26T04:41:30;101864.25;;;4.72
75431;BMP280;64127;51.488;5.462;2023-02-26T04:44:04;101840.41;;;4.55
75431;BMP280;64127;51.488;5.462;2023-02-26T04:46:36;101867.38;;;4.68
75431;BMP280;64127;51.488;5.462;2023-02-26T04:49:08;101874.16;;;4.66
75431;BMP280;64127;51.488;5.462;2023-02-26T04:51:40;101860.91;;;4.63
75431;BMP280;64127;51.488;5.462;2023-02-26T04:54:12;101878.28;;;4.64
75431;BMP280;64127;51.488;5.462;2023-02-26T04:56:44;101874.44;;;4.58
75431;BMP280;64127;51.488;5.462;2023-02-26T04:59:16;101882.47;;;4.62
75431;BMP280;64127;51.488;5.462;2023-02-26T05:01:48;101882.22;;;4.58
75431;BMP280;64127;51.488;5.462;2023-02-26T05:04:20;101889.72;;;4.55
75431;BMP280;64127;51.488;5.462;2023-02-26T05:06:52;101887.44;;;4.48
75431;BMP280;64127;51.488;5.462;2023-02-26T05:09:25;101887.97;;;4.44
75431;BMP280;64127;51.488;5.462;2023-02-26T05:11:57;101897.53;;;4.45
75431;BMP280;64127;51.488;5.462;2023-02-26T05:14:29;101886.56;;;4.38
75431;BMP280;64127;51.488;5.462;2023-02-26T05:17:01;101891.31;;;4.43
75431;BMP280;64127;51.488;5.462;2023-02-26T05:19:33;101906.38;;;4.47
75431;BMP280;64127;51.488;5.462;2023-02-26T05:22:05;101900.13;;;4.45
75431;BMP280;64127;51.488;5.462;2023-02-26T05:24:37;101913.91;;;4.44
75431;BMP280;64127;51.488;5.462;2023-02-26T05:27:10;101909.22;;;4.40
75431;BMP280;64127;51.488;5.462;2023-02-26T05:29:42;101918.03;;;4.42
75431;BMP280;64127;51.488;5.462;2023-02-26T05:32:15;101911.34;;;4.34
75431;BMP280;64127;51.488;5.462;2023-02-26T05:34:47;101918.59;;;4.38
75431;BMP280;64127;51.488;5.462;2023-02-26T05:37:19;101934.16;;;4.38
75431;BMP280;64127;51.488;5.462;2023-02-26T05:39:51;101923.50;;;4.35
75431;BMP280;64127;51.488;5.462;2023-02-26T05:42:23;101928.44;;;4.32
75431;BMP280;64127;51.488;5.462;2023-02-26T05:44:55;101924.81;;;4.30
75431;BMP280;64127;51.488;5.462;2023-02-26T05:47:28;101924.31;;;4.24
75431;BMP280;64127;51.488;5.462;2023-02-26T05:50:01;101929.75;;;4.27
75431;BMP280;64127;51.488;5.462;2023-02-26T05:52:33;101935.72;;;4.26
75431;BMP280;64127;51.488;5.462;2023-02-26T05:55:06;101932.09;;;4.24
75431;BMP280;64127;51.488;5.462;2023-02-26T05:57:39;101931.94;;;4.23
75431;BMP280;64127;51.488;5.462;2023-02-26T06:00:12;101937.03;;;4.21
75431;BMP280;64127;51.488;5.462;2023-02-26T06:02:44;101945.31;;;4.27
75431;BMP280;64127;51.488;5.462;2023-02-26T06:05:16;101949.59;;;4.27
75431;BMP280;64127;51.488;5.462;2023-02-26T06:07:49;101953.59;;;4.23
75431;BMP280;64127;51.488;5.462;2023-02-26T06:10:21;101953.47;;;4.22
75431;BMP280;64127;51.488;5.462;2023-02-26T06:12:53;101968.25;;;4.23
75431;BMP280;64127;51.488;5.462;2023-02-26T06:15:25;101961.91;;;4.19
75431;BMP280;64127;51.488;5.462;2023-02-26T06:17:57;101950.75;;;4.10
75431;BMP280;64127;51.488;5.462;2023-02-26T06:20:29;101959.53;;;4.52
75431;BMP280;64127;51.488;5.462;2023-02-26T06:23:01;101973.97;;;4.19
75431;BMP280;64127;51.488;5.462;2023-02-26T06:25:33;101984.84;;;4.15
75431;BMP280;64127;51.488;5.462;2023-02-26T06:28:05;101986.66;;;4.16
75431;BMP280;64127;51.488;5.462;2023-02-26T06:30:37;101982.41;;;4.16
75431;BMP280;64127;51.488;5.462;2023-02-26T06:33:09;101990.81;;;4.14
75431;BMP280;64127;51.488;5.462;2023-02-26T06:35:41;101997.44;;;4.10
75431;BMP280;64127;51.488;5.462;2023-02-26T06:38:13;101989.13;;;4.04
75431;BMP280;64127;51.488;5.462;2023-02-26T06:40:47;102006.91;;;4.09
75431;BMP280;64127;51.488;5.462;2023-02-26T06:43:19;102017.00;;;4.06
75431;BMP280;64127;51.488;5.462;2023-02-26T06:45:51;102015.84;;;4.03
75431;BMP280;64127;51.488;5.462;2023-02-26T06:48:24;102024.63;;;4.05
75431;BMP280;64127;51.488;5.462;2023-02-26T06:50:56;102029.56;;;4.02
75431;BMP280;64127;51.488;5.462;2023-02-26T06:53:28;102033.56;;;3.98
75431;BMP280;64127;51.488;5.462;2023-02-26T06:56:00;102033.31;;;4.05
75431;BMP280;64127;51.488;5.462;2023-02-26T06:58:33;102042.13;;;4.07
75431;BMP280;64127;51.488;5.462;2023-02-26T07:01:05;102049.56;;;4.13
75431;BMP280;64127;51.488;5.462;2023-02-26T07:03:37;102055.50;;;4.12
75431;BMP280;64127;51.488;5.462;2023-02-26T07:06:11;102063.53;;;4.15
75431;BMP280;64127;51.488;5.462;2023-02-26T07:08:57;102058.38;;;4.15
75431;BMP280;64127;51.488;5.462;2023-02-26T07:11:29;102066.03;;;4.24
75431;BMP280;64127;51.488;5.462;2023-02-26T07:14:01;102066.41;;;4.28
75431;BMP280;64127;51.488;5.462;2023-02-26T07:16:33;102079.44;;;4.38
75431;BMP280;64127;51.488;5.462;2023-02-26T07:19:05;102074.50;;;4.41
75431;BMP280;64127;51.488;5.462;2023-02-26T07:21:37;102081.72;;;4.45
75431;BMP280;64127;51.488;5.462;2023-02-26T07:24:09;102081.13;;;4.48
75431;BMP280;64127;51.488;5.462;2023-02-26T07:26:41;102092.66;;;4.51
75431;BMP280;64127;51.488;5.462;2023-02-26T07:29:13;102095.00;;;4.58
75431;BMP280;64127;51.488;5.462;2023-02-26T07:31:45;102102.25;;;4.63
75431;BMP280;64127;51.488;5.462;2023-02-26T07:34:17;102105.91;;;4.75
75431;BMP280;64127;51.488;5.462;2023-02-26T07:36:49;102110.31;;;4.76
75431;BMP280;64127;51.488;5.462;2023-02-26T07:39:21;102120.16;;;4.80
75431;BMP280;64127;51.488;5.462;2023-02-26T07:41:53;102123.66;;;4.80
75431;BMP280;64127;51.488;5.462;2023-02-26T07:44:25;102119.66;;;4.84
75431;BMP280;64127;51.488;5.462;2023-02-26T07:46:57;102130.84;;;4.93
75431;BMP280;64127;51.488;5.462;2023-02-26T07:49:29;102138.22;;;5.08
75431;BMP280;64127;51.488;5.462;2023-02-26T07:52:04;102110.66;;;5.10
75431;BMP280;64127;51.488;5.462;2023-02-26T07:54:38;102112.88;;;5.26
75431;BMP280;64127;51.488;5.462;2023-02-26T07:57:10;102123.34;;;5.38
75431;BMP280;64127;51.488;5.462;2023-02-26T07:59:42;102134.63;;;5.48
75431;BMP280;64127;51.488;5.462;2023-02-26T08:02:14;102133.81;;;5.59
75431;BMP280;64127;51.488;5.462;2023-02-26T08:04:47;102137.44;;;5.72
75431;BMP280;64127;51.488;5.462;2023-02-26T08:07:19;102146.50;;;5.77
75431;BMP280;64127;51.488;5.462;2023-02-26T08:09:51;102135.03;;;5.85
75431;BMP280;64127;51.488;5.462;2023-02-26T08:12:24;102140.34;;;5.96
75431;BMP280;64127;51.488;5.462;2023-02-26T08:14:56;102132.50;;;6.06
75431;BMP280;64127;51.488;5.462;2023-02-26T08:17:28;102145.53;;;6.28
75431;BMP280;64127;51.488;5.462;2023-02-26T08:20:00;102149.22;;;6.42
75431;BMP280;64127;51.488;5.462;2023-02-26T08:22:32;102144.31;;;6.56
75431;BMP280;64127;51.488;5.462;2023-02-26T08:25:05;102148.69;;;6.68
75431;BMP280;64127;51.488;5.462;2023-02-26T08:27:38;102156.41;;;6.78
75431;BMP280;64127;51.488;5.462;2023-02-26T08:30:11;102155.06;;;6.83
75431;BMP280;64127;51.488;5.462;2023-02-26T08:32:43;102164.38;;;6.91
75431;BMP280;64127;51.488;5.462;2023-02-26T08:35:17;102147.38;;;6.96
75431;BMP280;64127;51.488;5.462;2023-02-26T08:37:49;102148.34;;;7.08
75431;BMP280;64127;51.488;5.462;2023-02-26T08:40:21;102167.41;;;7.30
75431;BMP280;64127;51.488;5.462;2023-02-26T08:42:53;102162.22;;;7.42
75431;BMP280;64127;51.488;5.462;2023-02-26T08:45:25;102165.97;;;7.45
75431;BMP280;64127;51.488;5.462;2023-02-26T08:47:57;102170.16;;;7.43
75431;BMP280;64127;51.488;5.462;2023-02-26T08:50:29;102173.91;;;7.47
75431;BMP280;64127;51.488;5.462;2023-02-26T08:53:01;102175.41;;;7.55
75431;BMP280;64127;51.488;5.462;2023-02-26T08:55:33;102186.75;;;7.67
75431;BMP280;64127;51.488;5.462;2023-02-26T08:58:05;102187.88;;;7.71
75431;BMP280;64127;51.488;5.462;2023-02-26T09:00:38;102190.41;;;7.81
75431;BMP280;64127;51.488;5.462;2023-02-26T09:03:11;102187.41;;;7.88
75431;BMP280;64127;51.488;5.462;2023-02-26T09:05:43;102189.13;;;7.99
75431;BMP280;64127;51.488;5.462;2023-02-26T09:08:15;102195.47;;;8.14
75431;BMP280;64127;51.488;5.462;2023-02-26T09:10:47;102200.13;;;8.18
75431;BMP280;64127;51.488;5.462;2023-02-26T09:13:19;102203.09;;;8.11
75431;BMP280;64127;51.488;5.462;2023-02-26T09:15:51;102208.09;;;8.08
75431;BMP280;64127;51.488;5.462;2023-02-26T09:18:23;102203.31;;;8.14
75431;BMP280;64127;51.488;5.462;2023-02-26T09:20:55;102210.22;;;8.25
75431;BMP280;64127;51.488;5.462;2023-02-26T09:23:28;102213.31;;;8.31
75431;BMP280;64127;51.488;5.462;2023-02-26T09:26:00;102222.59;;;8.28
75431;BMP280;64127;51.488;5.462;2023-02-26T09:28:32;102229.06;;;8.21
75431;BMP280;64127;51.488;5.462;2023-02-26T09:31:04;102229.84;;;8.20
75431;BMP280;64127;51.488;5.462;2023-02-26T09:33:38;102227.16;;;8.07
75431;BMP280;64127;51.488;5.462;2023-02-26T09:36:10;102234.41;;;8.11
75431;BMP280;64127;51.488;5.462;2023-02-26T09:38:42;102238.47;;;8.19
75431;BMP280;64127;51.488;5.462;2023-02-26T09:41:27;102248.13;;;8.20
75431;BMP280;64127;51.488;5.462;2023-02-26T09:44:08;102250.75;;;8.20
75431;BMP280;64127;51.488;5.462;2023-02-26T09:50:01;102252.44;;;8.20
75431;BMP280;64127;51.488;5.462;2023-02-26T09:55:46;102264.72;;;8.44
75431;BMP280;64127;51.488;5.462;2023-02-26T09:58:36;102265.94;;;8.60
75431;BMP280;64127;51.488;5.462;2023-02-26T10:04:00;102258.66;;;8.56
75431;BMP280;64127;51.488;5.462;2023-02-26T10:10:02;102264.25;;;8.49
75431;BMP280;64127;51.488;5.462;2023-02-26T10:12:39;102276.81;;;8.66
75431;BMP280;64127;51.488;5.462;2023-02-26T10:15:24;102286.78;;;8.84
75431;BMP280;64127;51.488;5.462;2023-02-26T10:18:11;102280.63;;;8.95
75431;BMP280;64127;51.488;5.462;2023-02-26T10:21:07;102283.38;;;8.96
75431;BMP280;64127;51.488;5.462;2023-02-26T10:23:50;102272.63;;;9.05
75431;BMP280;64127;51.488;5.462;2023-02-26T10:26:37;102290.00;;;9.16
75431;BMP280;64127;51.488;5.462;2023-02-26T10:32:53;102289.66;;;9.11
75431;BMP280;64127;51.488;5.462;2023-02-26T10:35:36;102273.78;;;9.33
75431;BMP280;64127;51.488;5.462;2023-02-26T10:38:19;102283.69;;;9.50
75431;BMP280;64127;51.488;5.462;2023-02-26T10:41:19;102282.03;;;9.64
75431;BMP280;64127;51.488;5.462;2023-02-26T10:44:08;102273.00;;;9.85
75431;BMP280;64127;51.488;5.462;2023-02-26T10:47:21;102276.94;;;9.92
75431;BMP280;64127;51.488;5.462;2023-02-26T10:50:10;102282.38;;;9.95
75431;BMP280;64127;51.488;5.462;2023-02-26T10:52:45;102279.78;;;10.08
75431;BMP280;64127;51.488;5.462;2023-02-26T10:58:26;102285.69;;;10.17
75431;BMP280;64127;51.488;5.462;2023-02-26T11:00:58;102283.88;;;10.16
75431;BMP280;64127;51.488;5.462;2023-02-26T11:03:38;102285.44;;;10.14
75431;BMP280;64127;51.488;5.462;2023-02-26T11:06:21;102284.25;;;10.22
75431;BMP280;64127;51.488;5.462;2023-02-26T11:08:56;102288.69;;;10.36
75431;BMP280;64127;51.488;5.462;2023-02-26T11:11:53;102286.78;;;10.47
75431;BMP280;64127;51.488;5.462;2023-02-26T11:14:25;102301.38;;;10.56
75431;BMP280;64127;51.488;5.462;2023-02-26T11:17:09;102299.88;;;10.60
75431;BMP280;64127;51.488;5.462;2023-02-26T11:19:52;102298.97;;;10.46
75431;BMP280;64127;51.488;5.462;2023-02-26T11:22:32;102287.41;;;10.30
75431;BMP280;64127;51.488;5.462;2023-02-26T11:25:05;102292.63;;;10.30
75431;BMP280;64127;51.488;5.462;2023-02-26T11:27:38;102288.09;;;10.40
75431;BMP280;64127;51.488;5.462;2023-02-26T11:30:18;102302.38;;;10.58
75431;BMP280;64127;51.488;5.462;2023-02-26T11:32:52;102282.09;;;10.69
75431;BMP280;64127;51.488;5.462;2023-02-26T11:35:27;102291.69;;;10.82
75431;BMP280;64127;51.488;5.462;2023-02-26T11:38:01;102288.41;;;10.86
75431;BMP280;64127;51.488;5.462;2023-02-26T11:40:39;102292.25;;;10.91
75431;BMP280;64127;51.488;5.462;2023-02-26T11:43:17;102284.50;;;10.92
75431;BMP280;64127;51.488;5.462;2023-02-26T11:46:02;102282.88;;;10.94
75431;BMP280;64127;51.488;5.462;2023-02-26T11:48:40;102277.19;;;11.01
75431;BMP280;64127;51.488;5.462;2023-02-26T11:51:18;102272.94;;;11.03
75431;BMP280;64127;51.488;5.462;2023-02-26T11:53:54;102280.97;;;11.19
75431;BMP280;64127;51.488;5.462;2023-02-26T11:56:39;102280.81;;;11.31
75431;BMP280;64127;51.488;5.462;2023-02-26T11:59:24;102278.44;;;11.21
75431;BMP280;64127;51.488;5.462;2023-02-26T12:02:05;102279.72;;;11.00
75431;BMP280;64127;51.488;5.462;2023-02-26T12:04:48;102285.28;;;10.91
75431;BMP280;64127;51.488;5.462;2023-02-26T12:07:21;102284.00;;;10.85
75431;BMP280;64127;51.488;5.462;2023-02-26T12:09:53;102278.97;;;10.75
75431;BMP280;64127;51.488;5.462;2023-02-26T12:16:14;102287.13;;;10.79
75431;BMP280;64127;51.488;5.462;2023-02-26T12:22:23;102264.72;;;10.84
75431;BMP280;64127;51.488;5.462;2023-02-26T12:28:30;102284.91;;;11.13
75431;BMP280;64127;51.488;5.462;2023-02-26T12:34:56;102280.00;;;11.04
75431;BMP280;64127;51.488;5.462;2023-02-26T12:43:49;102281.28;;;11.11
75431;BMP280;64127;51.488;5.462;2023-02-26T13:08:39;102266.41;;;11.82
75431;BMP280;64127;51.488;5.462;2023-02-26T13:11:39;102275.34;;;11.98
75431;BMP280;64127;51.488;5.462;2023-02-26T13:17:39;102270.13;;;12.29
75431;BMP280;64127;51.488;5.462;2023-02-26T13:20:24;102268.22;;;12.27
75431;BMP280;64127;51.488;5.462;2023-02-26T13:23:13;102260.25;;;12.25
75431;BMP280;64127;51.488;5.462;2023-02-26T13:25:56;102260.31;;;12.41
75431;BMP280;64127;51.488;5.462;2023-02-26T13:35:03;102261.66;;;12.49
75431;BMP280;64127;51.488;5.462;2023-02-26T13:37:46;102268.91;;;12.53
75431;BMP280;64127;51.488;5.462;2023-02-26T13:46:04;102258.38;;;12.53
75431;BMP280;64127;51.488;5.462;2023-02-26T13:48:53;102257.34;;;12.35
75431;BMP280;64127;51.488;5.462;2023-02-26T14:05:31;102256.28;;;13.42
75431;BMP280;64127;51.488;5.462;2023-02-26T14:11:33;102251.59;;;13.70
75431;BMP280;64127;51.488;5.462;2023-02-26T14:25:32;102257.94;;;14.07
75431;BMP280;64127;51.488;5.462;2023-02-26T14:37:11;102255.75;;;14.69
75431;BMP280;64127;51.488;5.462;2023-02-26T14:40:02;102244.59;;;14.75
75431;BMP280;64127;51.488;5.462;2023-02-26T14:42:52;102259.00;;;15.01
75431;BMP280;64127;51.488;5.462;2023-02-26T14:45:43;102249.84;;;15.12
75431;BMP280;64127;51.488;5.462;2023-02-26T14:48:21;102241.06;;;15.32
75431;BMP280;64127;51.488;5.462;2023-02-26T14:54:52;102243.38;;;14.86
75431;BMP280;64127;51.488;5.462;2023-02-26T15:00:56;102251.16;;;15.02
75431;BMP280;64127;51.488;5.462;2023-02-26T15:15:37;102242.63;;;15.27
75431;BMP280;64127;51.488;5.462;2023-02-26T15:18:39;102245.97;;;15.61
75431;BMP280;64127;51.488;5.462;2023-02-26T15:24:04;102242.09;;;15.95
75431;BMP280;64127;51.488;5.462;2023-02-26T15:26:54;102251.66;;;15.91
75431;BMP280;64127;51.488;5.462;2023-02-26T15:29:34;102242.91;;;15.92
75431;BMP280;64127;51.488;5.462;2023-02-26T15:32:30;102257.88;;;15.72
75431;BMP280;64127;51.488;5.462;2023-02-26T15:35:21;102245.66;;;15.55
75431;BMP280;64127;51.488;5.462;2023-02-26T15:37:58;102260.53;;;15.72
75431;BMP280;64127;51.488;5.462;2023-02-26T15:40:33;102244.78;;;15.76
75431;BMP280;64127;51.488;5.462;2023-02-26T15:43:08;102244.22;;;15.83
75431;BMP280;64127;51.488;5.462;2023-02-26T15:45:47;102252.16;;;15.83
75431;BMP280;64127;51.488;5.462;2023-02-26T15:48:36;102240.41;;;15.76
75431;BMP280;64127;51.488;5.462;2023-02-26T15:51:13;102236.56;;;15.68
75431;BMP280;64127;51.488;5.462;2023-02-26T15:53:50;102262.53;;;15.57
75431;BMP280;64127;51.488;5.462;2023-02-26T15:56:27;102253.47;;;15.52
75431;BMP280;64127;51.488;5.462;2023-02-26T15:59:24;102263.38;;;15.39
75431;BMP280;64127;51.488;5.462;2023-02-26T16:02:00;102252.41;;;15.30
75431;BMP280;64127;51.488;5.462;2023-02-26T16:04:34;102262.22;;;15.32
75431;BMP280;64127;51.488;5.462;2023-02-26T16:07:10;102261.59;;;15.18
75431;BMP280;64127;51.488;5.462;2023-02-26T16:09:50;102270.41;;;15.00
75431;BMP280;64127;51.488;5.462;2023-02-26T16:12:35;102274.47;;;14.93
75431;BMP280;64127;51.488;5.462;2023-02-26T16:15:18;102278.66;;;14.88
75431;BMP280;64127;51.488;5.462;2023-02-26T16:17:55;102277.94;;;15.10
75431;BMP280;64127;51.488;5.462;2023-02-26T16:20:38;102276.41;;;15.34
75431;BMP280;64127;51.488;5.462;2023-02-26T16:23:24;102279.00;;;15.71
75431;BMP280;64127;51.488;5.462;2023-02-26T16:26:04;102277.34;;;15.94
75431;BMP280;64127;51.488;5.462;2023-02-26T16:28:41;102279.59;;;16.05
75431;BMP280;64127;51.488;5.462;2023-02-26T16:31:26;102281.47;;;16.08
75431;BMP280;64127;51.488;5.462;2023-02-26T16:34:19;102285.81;;;16.06
75431;BMP280;64127;51.488;5.462;2023-02-26T16:36:53;102286.94;;;15.92
75431;BMP280;64127;51.488;5.462;2023-02-26T16:39:30;102296.41;;;15.87
75431;BMP280;64127;51.488;5.462;2023-02-26T16:44:50;102288.78;;;15.35
75431;BMP280;64127;51.488;5.462;2023-02-26T16:47:25;102285.66;;;14.88
75431;BMP280;64127;51.488;5.462;2023-02-26T16:50:01;102303.97;;;14.32
75431;BMP280;64127;51.488;5.462;2023-02-26T16:52:33;102304.75;;;13.61
75431;BMP280;64127;51.488;5.462;2023-02-26T16:55:07;102310.31;;;13.19
75431;BMP280;64127;51.488;5.462;2023-02-26T16:57:45;102310.25;;;12.87
75431;BMP280;64127;51.488;5.462;2023-02-26T17:00:23;102295.00;;;12.50
75431;BMP280;64127;51.488;5.462;2023-02-26T17:03:15;102312.78;;;12.40
75431;BMP280;64127;51.488;5.462;2023-02-26T17:06:09;102323.19;;;12.22
75431;BMP280;64127;51.488;5.462;2023-02-26T17:09:00;102329.16;;;12.05
75431;BMP280;64127;51.488;5.462;2023-02-26T17:11:39;102331.13;;;11.94
75431;BMP280;64127;51.488;5.462;2023-02-26T17:14:24;102337.16;;;11.79
75431;BMP280;64127;51.488;5.462;2023-02-26T17:16:56;102346.09;;;11.67
75431;BMP280;64127;51.488;5.462;2023-02-26T17:19:28;102345.34;;;11.55
75431;BMP280;64127;51.488;5.462;2023-02-26T17:22:01;102350.41;;;11.52
75431;BMP280;64127;51.488;5.462;2023-02-26T17:24:37;102351.75;;;11.46
75431;BMP280;64127;51.488;5.462;2023-02-26T17:27:23;102348.34;;;11.34
75431;BMP280;64127;51.488;5.462;2023-02-26T17:29:59;102355.03;;;11.29
75431;BMP280;64127;51.488;5.462;2023-02-26T17:32:31;102355.34;;;11.20
75431;BMP280;64127;51.488;5.462;2023-02-26T17:35:04;102369.28;;;11.19
75431;BMP280;64127;51.488;5.462;2023-02-26T17:37:37;102366.34;;;11.55
75431;BMP280;64127;51.488;5.462;2023-02-26T17:40:27;102366.69;;;11.06
75431;BMP280;64127;51.488;5.462;2023-02-26T17:43:04;102375.66;;;10.96
75431;BMP280;64127;51.488;5.462;2023-02-26T17:45:38;102374.56;;;10.93
75431;BMP280;64127;51.488;5.462;2023-02-26T17:48:14;102381.25;;;10.88
75431;BMP280;64127;51.488;5.462;2023-02-26T17:50:51;102380.66;;;10.79
75431;BMP280;64127;51.488;5.462;2023-02-26T17:53:24;102378.63;;;10.75
75431;BMP280;64127;51.488;5.462;2023-02-26T17:56:10;102388.69;;;10.68